Time;durP1;ratioP1;P1;durP2;ratioP2;P2;SDS_P1;SDS_P2;PMS_P1;PMS_P2;Temp;Humidity;BMP_temperature;BMP_pressure;BME280_temperature;BME280_humidity;BME280_pressure;Samples;Min_cycle;Max_cycle;Signal;HPM_P1;HPM_P2
2024/01/02 00:02:10;;;;;;;9.95;2.67;;;6.40;99.90;;;;;;5097340;28;20051;-81
2024/01/02 00:04:36;;;;;;;10.13;2.90;;;6.50;99.90;;;;;;5096797;28;20104;-82
2024/01/02 00:07:02;;;;;;;10.15;2.28;;;6.50;99.90;;;;;;5113168;28;20043;-81
2024/01/02 00:09:28;;;;;;;14.35;2.90;;;6.50;99.90;;;;;;5095990;28;20051;-81
2024/01/02 00:11:54;;;;;;;13.10;2.45;;;6.40;99.90;;;;;;5113282;28;20036;-81
2024/01/02 00:14:19;;;;;;;7.30;2.58;;;6.50;99.90;;;;;;5129259;27;20078;-82
2024/01/02 00:16:45;;;;;;;10.60;2.45;;;6.50;99.90;;;;;;5131157;27;20116;-82
2024/01/02 00:19:11;;;;;;;7.30;2.15;;;6.50;99.90;;;;;;5113240;27;20063;-81
2024/01/02 00:21:36;;;;;;;13.20;2.78;;;6.60;99.90;;;;;;5113216;28;20075;-81
2024/01/02 00:24:03;;;;;;;10.98;2.28;;;6.60;99.90;;;;;;5129913;27;20469;-81
2024/01/02 00:26:29;;;;;;;8.32;2.33;;;6.60;99.90;;;;;;5096716;28;20044;-81
2024/01/02 00:28:54;;;;;;;8.85;2.35;;;6.60;99.90;;;;;;5113885;28;20062;-81
2024/01/02 00:31:20;;;;;;;9.45;2.13;;;6.60;99.90;;;;;;5089446;28;20093;-80
2024/01/02 00:33:46;;;;;;;7.90;1.80;;;6.60;99.90;;;;;;5145207;27;20049;-81
2024/01/02 00:36:12;;;;;;;8.30;1.83;;;6.60;99.90;;;;;;5113833;28;20380;-81
2024/01/02 00:38:38;;;;;;;9.65;2.40;;;6.60;99.90;;;;;;5113681;28;20118;-81
2024/01/02 00:41:04;;;;;;;6.85;1.95;;;6.60;99.90;;;;;;5095262;28;20110;-81
2024/01/02 00:43:30;;;;;;;7.43;1.88;;;6.60;99.90;;;;;;5129718;27;20035;-81
2024/01/02 00:45:59;;;;;;;12.10;2.72;;;6.50;99.90;;;;;;5113887;28;20039;-81
2024/01/02 00:48:26;;;;;;;8.80;2.03;;;6.60;99.90;;;;;;5113474;28;20054;-82
2024/01/02 00:50:51;;;;;;;6.47;1.88;;;6.70;99.90;;;;;;5094619;27;20038;-81
2024/01/02 00:53:17;;;;;;;7.47;1.85;;;6.70;99.90;;;;;;5094992;28;20040;-81
2024/01/02 00:55:43;;;;;;;5.45;1.27;;;6.80;99.90;;;;;;5096335;28;20438;-81
2024/01/02 00:58:08;;;;;;;8.75;2.17;;;6.80;99.90;;;;;;5095230;28;20411;-82
2024/01/02 01:00:34;;;;;;;4.65;1.10;;;7.00;99.90;;;;;;5112089;28;20039;-81
2024/01/02 01:03:00;;;;;;;5.75;1.85;;;6.80;99.90;;;;;;5084419;28;20040;-81
2024/01/02 01:05:26;;;;;;;8.52;2.05;;;6.90;99.90;;;;;;5136466;27;20047;-81
2024/01/02 01:07:52;;;;;;;5.78;1.65;;;6.90;99.90;;;;;;5113095;28;20043;-81
2024/01/02 01:10:17;;;;;;;3.72;1.20;;;6.90;99.90;;;;;;5145732;27;20044;-81
2024/01/02 01:12:47;;;;;;;5.20;1.00;;;6.90;99.90;;;;;;5112407;28;20035;-82
2024/01/02 01:15:12;;;;;;;4.75;1.25;;;7.00;99.90;;;;;;5129370;27;20034;-81
2024/01/02 01:17:39;;;;;;;6.32;1.38;;;7.00;99.90;;;;;;5096220;28;20430;-81
2024/01/02 01:20:05;;;;;;;7.47;1.70;;;7.00;99.90;;;;;;5109883;27;20027;-81
2024/01/02 01:22:31;;;;;;;4.55;1.42;;;7.00;99.90;;;;;;5095301;28;20063;-81
2024/01/02 01:24:56;;;;;;;6.40;1.50;;;7.00;99.90;;;;;;5147583;27;20083;-81
2024/01/02 01:27:22;;;;;;;7.05;1.30;;;6.90;99.90;;;;;;5130067;27;20089;-81
2024/01/02 01:29:48;;;;;;;4.82;1.10;;;6.90;99.90;;;;;;5128049;27;20201;-82
2024/01/02 01:32:14;;;;;;;6.32;1.50;;;6.90;99.90;;;;;;5142473;27;20122;-82
2024/01/02 01:34:39;;;;;;;3.40;1.10;;;7.10;99.90;;;;;;5147054;27;20150;-81
2024/01/02 01:37:05;;;;;;;4.28;1.20;;;7.00;99.90;;;;;;5129741;27;20071;-81
2024/01/02 01:39:31;;;;;;;7.30;1.95;;;7.00;99.90;;;;;;5128495;27;20042;-81
2024/01/02 01:41:56;;;;;;;3.20;1.02;;;6.90;99.90;;;;;;5089063;28;20480;-81
2024/01/02 01:44:22;;;;;;;4.88;1.20;;;7.10;99.90;;;;;;5111723;28;20088;-81
2024/01/02 01:46:48;;;;;;;4.47;1.20;;;7.10;99.90;;;;;;5108386;28;20086;-81
2024/01/02 01:49:15;;;;;;;4.90;1.60;;;7.00;99.90;;;;;;5126311;27;20048;-81
2024/01/02 01:51:42;;;;;;;5.75;1.48;;;7.00;99.90;;;;;;5138593;27;20040;-81
2024/01/02 01:54:12;;;;;;;6.38;1.58;;;7.00;99.90;;;;;;5095775;28;20113;-81
2024/01/02 01:56:39;;;;;;;4.25;1.30;;;7.00;99.90;;;;;;5112402;28;20480;-81
2024/01/02 01:59:05;;;;;;;5.43;1.48;;;7.00;99.90;;;;;;5095307;28;20058;-81
2024/01/02 02:01:32;;;;;;;5.28;1.60;;;7.10;99.90;;;;;;5109461;28;20042;-81
2024/01/02 02:04:00;;;;;;;6.90;1.40;;;7.10;99.90;;;;;;5112359;28;20047;-81
2024/01/02 02:06:26;;;;;;;6.70;2.20;;;7.00;99.90;;;;;;5119518;28;20116;-81
2024/01/02 02:08:52;;;;;;;6.35;2.35;;;7.10;99.90;;;;;;5110589;28;20081;-81
2024/01/02 02:11:18;;;;;;;11.13;2.55;;;7.00;99.90;;;;;;5112033;27;20046;-81
2024/01/02 02:13:44;;;;;;;4.68;1.73;;;7.10;99.90;;;;;;5115096;28;20498;-81
2024/01/02 02:16:09;;;;;;;5.25;2.10;;;7.10;99.90;;;;;;5133978;27;20039;-80
2024/01/02 02:18:35;;;;;;;5.07;1.73;;;7.10;99.90;;;;;;5132486;27;20040;-81
2024/01/02 02:21:01;;;;;;;4.75;1.95;;;7.10;99.90;;;;;;5132592;27;20084;-81
2024/01/02 02:23:27;;;;;;;5.65;1.90;;;7.20;99.90;;;;;;5130739;27;20051;-81
2024/01/02 02:25:53;;;;;;;6.35;2.05;;;7.20;99.90;;;;;;5133525;27;20039;-81
2024/01/02 02:28:19;;;;;;;10.23;2.40;;;7.20;99.90;;;;;;5133332;27;20039;-80
2024/01/02 02:30:44;;;;;;;6.38;2.08;;;7.20;99.90;;;;;;5149537;27;20043;-81
2024/01/02 02:33:10;;;;;;;6.72;2.60;;;7.20;99.90;;;;;;5114322;27;20035;-81
2024/01/02 02:35:35;;;;;;;5.70;1.92;;;7.20;99.90;;;;;;5133039;27;20040;-81
2024/01/02 02:38:01;;;;;;;10.32;2.50;;;7.10;99.90;;;;;;5132387;27;20039;-81
2024/01/02 02:40:27;;;;;;;7.15;1.90;;;7.20;99.90;;;;;;5149477;27;20040;-81
2024/01/02 02:42:52;;;;;;;5.55;2.67;;;7.20;99.90;;;;;;5131011;27;20027;-81
2024/01/02 02:45:18;;;;;;;6.53;2.03;;;7.20;99.90;;;;;;5099105;28;20437;-81
2024/01/02 02:47:44;;;;;;;8.60;2.80;;;7.20;99.90;;;;;;5115930;28;20051;-81
2024/01/02 02:50:10;;;;;;;6.35;2.05;;;7.20;99.90;;;;;;5132086;27;20043;-81
2024/01/02 02:52:35;;;;;;;5.60;2.25;;;7.20;99.90;;;;;;5131377;27;20126;-80
2024/01/02 02:55:01;;;;;;;7.50;2.47;;;7.30;99.90;;;;;;5097476;28;20126;-80
2024/01/02 02:57:27;;;;;;;8.95;2.78;;;7.30;99.90;;;;;;5132919;27;20078;-81
2024/01/02 02:59:52;;;;;;;6.70;1.85;;;7.40;99.90;;;;;;5131680;27;20054;-81
2024/01/02 03:02:18;;;;;;;8.85;2.53;;;7.20;99.90;;;;;;5132959;27;20036;-81
2024/01/02 03:04:44;;;;;;;7.40;2.58;;;7.20;99.90;;;;;;5148000;27;20419;-81
2024/01/02 03:07:10;;;;;;;7.28;2.05;;;7.20;99.90;;;;;;5115619;28;20089;-81
2024/01/02 03:09:37;;;;;;;6.47;2.10;;;7.30;99.90;;;;;;5132095;27;20070;-81
2024/01/02 03:12:04;;;;;;;11.52;3.38;;;7.30;99.90;;;;;;5115475;28;20448;-81
2024/01/02 03:14:30;;;;;;;4.22;1.70;;;7.30;99.90;;;;;;5147241;27;20040;-81
2024/01/02 03:16:55;;;;;;;7.03;2.33;;;7.30;99.90;;;;;;5115446;28;20043;-81
2024/01/02 03:19:21;;;;;;;9.02;2.55;;;7.30;99.90;;;;;;5114346;28;20130;-81
2024/01/02 03:21:47;;;;;;;10.35;3.40;;;7.20;99.90;;;;;;5116549;27;20036;-81
2024/01/02 03:24:12;;;;;;;8.85;2.80;;;7.20;99.90;;;;;;5113739;28;20096;-81
2024/01/02 03:26:38;;;;;;;7.57;2.28;;;7.30;99.90;;;;;;5113782;27;20132;-81
2024/01/02 03:29:04;;;;;;;5.32;2.13;;;7.30;99.90;;;;;;5115542;27;20028;-81
2024/01/02 03:31:29;;;;;;;6.20;2.28;;;7.40;99.90;;;;;;5097580;28;20039;-81
2024/01/02 03:33:55;;;;;;;6.95;1.88;;;7.30;99.90;;;;;;5115148;28;20045;-81
2024/01/02 03:36:21;;;;;;;4.65;2.10;;;7.30;99.90;;;;;;5130408;27;20027;-81
2024/01/02 03:38:48;;;;;;;3.15;1.48;;;7.30;99.90;;;;;;5132021;27;20034;-81
2024/01/02 03:41:14;;;;;;;8.25;2.53;;;7.30;99.90;;;;;;5113551;27;20075;-81
2024/01/02 03:43:40;;;;;;;5.55;2.00;;;7.20;99.90;;;;;;5090709;27;20067;-81
2024/01/02 03:46:06;;;;;;;8.07;2.35;;;7.30;99.90;;;;;;5083903;27;20035;-81
2024/01/02 03:48:32;;;;;;;7.75;2.03;;;7.30;99.90;;;;;;5097656;27;20050;-81
2024/01/02 03:50:57;;;;;;;8.50;2.33;;;7.20;99.90;;;;;;5111078;27;20065;-81
2024/01/02 03:53:23;;;;;;;6.80;2.33;;;7.20;99.90;;;;;;5110314;27;20689;-80
2024/01/02 03:55:49;;;;;;;7.30;2.53;;;7.20;99.90;;;;;;5106524;27;20046;-81
2024/01/02 03:58:14;;;;;;;4.05;1.73;;;7.20;99.90;;;;;;5088274;27;20058;-81
2024/01/02 04:00:40;;;;;;;9.23;2.40;;;7.20;99.90;;;;;;5119669;27;20101;-81
2024/01/02 04:03:06;;;;;;;4.97;1.73;;;7.10;99.90;;;;;;5108107;27;20031;-81
2024/01/02 04:05:32;;;;;;;3.83;1.40;;;7.20;99.90;;;;;;5113228;27;20445;-81
2024/01/02 04:07:57;;;;;;;6.15;1.38;;;7.30;99.90;;;;;;5104706;27;20045;-81
2024/01/02 04:10:23;;;;;;;8.45;1.70;;;7.20;99.90;;;;;;5073096;28;20562;-81
2024/01/02 04:12:49;;;;;;;4.50;1.88;;;7.30;99.90;;;;;;5089178;27;20134;-81
2024/01/02 04:15:15;;;;;;;6.32;1.70;;;7.30;99.90;;;;;;5125879;27;20039;-82
2024/01/02 04:17:40;;;;;;;7.18;1.83;;;7.10;99.90;;;;;;5073485;27;20491;-82
2024/01/02 04:20:06;;;;;;;6.63;1.60;;;7.20;99.90;;;;;;5088876;28;20040;-82
2024/01/02 04:22:32;;;;;;;4.75;1.60;;;7.30;99.90;;;;;;5090297;27;20073;-81
2024/01/02 04:24:57;;;;;;;4.07;1.80;;;7.20;99.90;;;;;;5114061;27;20040;-81
2024/01/02 04:27:23;;;;;;;11.05;2.50;;;7.20;99.90;;;;;;5101734;27;20039;-81
2024/01/02 04:29:49;;;;;;;4.35;1.75;;;7.20;99.90;;;;;;5121262;27;20050;-81
2024/01/02 04:32:15;;;;;;;2.38;1.38;;;7.10;99.90;;;;;;5089791;27;21329;-81
2024/01/02 04:34:41;;;;;;;2.88;1.30;;;7.30;99.90;;;;;;5084266;27;20031;-80
2024/01/02 04:37:07;;;;;;;4.47;1.48;;;7.30;99.90;;;;;;5091814;27;20606;-81
2024/01/02 04:39:33;;;;;;;5.28;1.60;;;7.40;99.90;;;;;;5088827;27;20488;-81
2024/01/02 04:42:00;;;;;;;5.65;1.30;;;7.40;99.90;;;;;;5098007;27;20046;-81
2024/01/02 04:44:26;;;;;;;3.22;1.20;;;7.40;99.90;;;;;;5090092;28;20518;-81
2024/01/02 04:46:52;;;;;;;2.35;1.00;;;7.30;99.90;;;;;;5082041;27;20039;-82
2024/01/02 04:49:18;;;;;;;3.13;1.23;;;7.30;99.90;;;;;;5120003;27;20035;-82
2024/01/02 04:51:44;;;;;;;3.42;1.13;;;7.40;99.90;;;;;;5110300;27;20043;-80
2024/01/02 04:54:09;;;;;;;2.00;1.08;;;7.40;99.90;;;;;;5103585;27;20094;-80
2024/01/02 04:56:35;;;;;;;5.28;2.00;;;7.50;99.90;;;;;;5095847;27;20039;-80
2024/01/02 04:59:01;;;;;;;2.70;1.10;;;7.40;99.90;;;;;;5119592;27;20468;-81
2024/01/02 05:01:27;;;;;;;3.83;1.45;;;7.30;99.90;;;;;;5138685;27;20051;-80
2024/01/02 05:03:52;;;;;;;3.20;1.40;;;7.20;99.90;;;;;;5123923;27;20069;-80
2024/01/02 05:06:18;;;;;;;4.32;1.60;;;7.30;99.90;;;;;;5096988;28;20031;-80
2024/01/02 05:08:43;;;;;;;6.05;1.55;;;7.30;99.90;;;;;;5093052;28;20027;-80
2024/01/02 05:11:09;;;;;;;4.10;1.40;;;7.20;99.90;;;;;;5112305;28;20044;-80
2024/01/02 05:13:36;;;;;;;4.95;1.10;;;7.20;99.90;;;;;;5089279;27;20035;-81
2024/01/02 05:16:02;;;;;;;3.25;0.88;;;7.20;99.90;;;;;;5069941;27;20496;-81
2024/01/02 05:18:28;;;;;;;3.35;0.80;;;7.30;99.90;;;;;;5114147;27;20035;-81
2024/01/02 05:20:53;;;;;;;4.95;1.20;;;7.30;99.90;;;;;;5104264;27;20457;-82
2024/01/02 05:23:19;;;;;;;4.80;1.27;;;7.30;99.90;;;;;;5090876;27;20039;-82
2024/01/02 05:25:45;;;;;;;1.52;0.70;;;7.40;99.90;;;;;;5089249;27;20140;-82
2024/01/02 05:28:10;;;;;;;2.45;1.00;;;7.30;99.90;;;;;;5125039;27;20040;-81
2024/01/02 05:30:36;;;;;;;2.65;1.10;;;7.30;99.90;;;;;;5101912;27;20044;-80
2024/01/02 05:33:03;;;;;;;2.38;0.93;;;7.30;99.90;;;;;;5088490;27;20420;-80
2024/01/02 05:35:28;;;;;;;1.25;0.70;;;7.40;99.90;;;;;;5087906;27;22016;-81
2024/01/02 05:37:54;;;;;;;3.10;1.20;;;7.40;99.90;;;;;;5103943;27;20119;-81
2024/01/02 05:40:19;;;;;;;5.22;1.10;;;7.30;99.90;;;;;;5094269;27;20088;-80
2024/01/02 05:42:45;;;;;;;2.92;0.88;;;7.30;99.90;;;;;;5101358;27;20499;-81
2024/01/02 05:45:11;;;;;;;3.22;1.10;;;7.20;99.90;;;;;;5110795;27;20042;-80
2024/01/02 05:47:36;;;;;;;3.83;1.08;;;7.20;99.90;;;;;;5094701;27;20118;-81
2024/01/02 05:50:02;;;;;;;1.73;0.65;;;7.20;99.90;;;;;;5134170;27;20043;-81
2024/01/02 05:52:28;;;;;;;4.00;1.10;;;7.20;99.90;;;;;;5090692;28;20089;-81
2024/01/02 05:54:53;;;;;;;1.90;0.95;;;7.20;99.90;;;;;;5073789;27;20145;-81
2024/01/02 05:57:19;;;;;;;2.35;0.95;;;7.10;99.90;;;;;;5086942;27;20470;-82
2024/01/02 05:59:45;;;;;;;3.13;1.00;;;7.10;99.90;;;;;;5126126;27;20044;-81
2024/01/02 06:02:11;;;;;;;1.63;0.90;;;7.20;99.90;;;;;;5108529;27;20039;-81
2024/01/02 06:04:36;;;;;;;1.42;0.80;;;7.10;99.90;;;;;;5118583;27;20067;-82
2024/01/02 06:07:02;;;;;;;2.08;1.00;;;7.10;99.90;;;;;;5087626;28;20043;-81
2024/01/02 06:09:28;;;;;;;0.98;0.60;;;7.30;99.90;;;;;;5114234;28;20035;-81
2024/01/02 06:11:53;;;;;;;3.78;0.65;;;7.30;99.90;;;;;;5107005;27;20131;-79
2024/01/02 06:14:19;;;;;;;1.58;0.60;;;7.40;99.90;;;;;;5086237;28;20572;-80
2024/01/02 06:16:45;;;;;;;1.63;0.80;;;7.30;99.90;;;;;;5118925;27;20080;-79
2024/01/02 06:19:11;;;;;;;1.90;0.82;;;7.30;99.90;;;;;;5080331;28;20486;-80
2024/01/02 06:21:37;;;;;;;1.23;0.60;;;7.40;99.90;;;;;;5083980;28;20074;-81
2024/01/02 06:24:02;;;;;;;2.15;0.60;;;7.30;99.90;;;;;;5085051;28;20496;-79
2024/01/02 06:26:28;;;;;;;1.90;0.60;;;7.40;99.90;;;;;;5085686;28;20449;-81
2024/01/02 06:28:54;;;;;;;2.53;0.75;;;7.40;99.90;;;;;;5102720;28;20063;-81
2024/01/02 06:31:20;;;;;;;1.55;0.50;;;7.40;99.90;;;;;;5122494;27;20200;-81
2024/01/02 06:33:46;;;;;;;1.83;1.05;;;7.40;99.90;;;;;;5101395;27;20102;-81
2024/01/02 06:36:11;;;;;;;0.90;0.43;;;7.30;99.90;;;;;;5089272;28;20052;-81
2024/01/02 06:38:38;;;;;;;0.60;0.40;;;7.30;99.90;;;;;;5071219;28;20042;-81
2024/01/02 06:41:04;;;;;;;0.63;0.40;;;7.30;99.90;;;;;;5124991;27;20027;-80
2024/01/02 06:43:30;;;;;;;1.52;0.60;;;7.30;99.90;;;;;;5089065;28;20039;-80
2024/01/02 06:45:56;;;;;;;1.35;0.50;;;7.40;99.90;;;;;;5087059;28;20622;-80
2024/01/02 06:48:21;;;;;;;0.60;0.38;;;7.40;99.90;;;;;;5124623;27;20039;-81
2024/01/02 06:50:47;;;;;;;0.47;0.47;;;7.40;99.90;;;;;;5099291;28;20035;-82
2024/01/02 06:53:13;;;;;;;0.35;0.30;;;7.40;99.90;;;;;;5087170;28;20050;-82
2024/01/02 06:55:39;;;;;;;1.65;0.40;;;7.40;99.90;;;;;;5087942;27;20613;-81
2024/01/02 06:58:05;;;;;;;1.17;0.45;;;7.50;99.90;;;;;;5080042;27;20051;-81
2024/01/02 07:00:32;;;;;;;0.55;0.40;;;7.40;99.90;;;;;;5106219;27;20094;-82
2024/01/02 07:02:58;;;;;;;1.15;0.50;;;7.40;99.90;;;;;;5120198;27;20035;-81
2024/01/02 07:05:24;;;;;;;0.43;0.40;;;7.50;99.90;;;;;;5080827;27;20035;-81
2024/01/02 07:07:50;;;;;;;0.47;0.40;;;7.50;99.90;;;;;;5119902;27;20453;-81
2024/01/02 07:10:15;;;;;;;0.90;0.70;;;7.40;99.90;;;;;;5117141;27;20040;-82
2024/01/02 07:12:41;;;;;;;0.50;0.50;;;7.40;99.90;;;;;;5128861;27;20572;-82
2024/01/02 07:15:07;;;;;;;0.35;0.35;;;7.50;99.90;;;;;;5104246;27;20035;-84
2024/01/02 07:17:33;;;;;;;0.50;0.50;;;7.50;99.90;;;;;;5099684;27;20044;-83
2024/01/02 07:19:59;;;;;;;0.75;0.55;;;7.60;99.90;;;;;;5097890;27;20032;-82
2024/01/02 07:22:28;;;;;;;0.80;0.70;;;7.60;99.90;;;;;;5134800;27;20039;-83
2024/01/02 07:24:54;;;;;;;0.60;0.40;;;7.60;99.90;;;;;;5080048;28;20143;-82
2024/01/02 07:27:20;;;;;;;1.05;0.70;;;7.60;99.90;;;;;;5089589;27;20047;-82
2024/01/02 07:29:47;;;;;;;0.45;0.45;;;7.60;99.90;;;;;;5083187;27;20511;-82
2024/01/02 07:32:12;;;;;;;1.73;0.80;;;7.60;99.90;;;;;;5097127;27;20123;-82
2024/01/02 07:34:38;;;;;;;0.80;0.80;;;7.60;99.90;;;;;;5121668;27;20047;-82
2024/01/02 07:37:04;;;;;;;0.90;0.60;;;7.70;99.90;;;;;;5102471;27;20408;-81
2024/01/02 07:39:30;;;;;;;0.60;0.60;;;7.60;99.90;;;;;;5090150;27;20059;-81
2024/01/02 07:41:55;;;;;;;0.70;0.70;;;7.60;99.90;;;;;;5086719;27;20031;-82
2024/01/02 07:44:22;;;;;;;0.65;0.65;;;7.70;99.90;;;;;;5086978;27;20539;-82
2024/01/02 07:46:47;;;;;;;0.60;0.60;;;7.60;99.90;;;;;;5123758;27;20054;-82
2024/01/02 07:49:13;;;;;;;0.88;0.80;;;7.60;99.90;;;;;;5091050;27;20047;-81
2024/01/02 07:51:39;;;;;;;0.70;0.70;;;7.60;99.90;;;;;;5098412;27;20035;-81
2024/01/02 07:54:04;;;;;;;1.92;0.80;;;7.50;99.90;;;;;;5073936;27;20077;-81
2024/01/02 07:56:31;;;;;;;1.58;1.00;;;7.50;99.90;;;;;;5112138;27;20067;-81
2024/01/02 07:58:57;;;;;;;0.80;0.77;;;7.60;99.90;;;;;;5089619;27;20062;-82
2024/01/02 08:01:23;;;;;;;1.55;0.80;;;7.60;99.90;;;;;;5090981;27;21101;-81
2024/01/02 08:03:48;;;;;;;1.73;1.10;;;7.70;99.90;;;;;;5092799;27;20119;-81
2024/01/02 08:06:14;;;;;;;2.30;1.38;;;7.80;99.90;;;;;;5103222;27;20035;-81
2024/01/02 08:08:40;;;;;;;0.73;0.73;;;7.80;99.90;;;;;;5099054;27;20435;-83
2024/01/02 08:11:08;;;;;;;1.38;1.00;;;7.80;99.90;;;;;;5103981;27;20047;-83
2024/01/02 08:13:34;;;;;;;1.25;1.10;;;7.80;99.90;;;;;;5089294;27;21187;-81
2024/01/02 08:16:00;;;;;;;1.90;1.20;;;7.90;99.90;;;;;;5117801;27;20084;-81
2024/01/02 08:18:25;;;;;;;1.75;1.23;;;7.80;99.90;;;;;;5108634;27;20088;-81
2024/01/02 08:20:51;;;;;;;1.63;1.20;;;7.90;99.90;;;;;;5109740;27;20458;-81
2024/01/02 08:23:17;;;;;;;1.77;1.33;;;7.90;99.90;;;;;;5104638;27;20149;-83
2024/01/02 08:25:42;;;;;;;3.90;1.35;;;8.00;99.90;;;;;;5067455;28;20084;-82
2024/01/02 08:28:09;;;;;;;5.45;1.65;;;8.10;99.90;;;;;;5063489;28;20047;-82
2024/01/02 08:30:34;;;;;;;5.93;1.80;;;8.30;99.90;;;;;;5129976;27;20031;-82
2024/01/02 08:33:00;;;;;;;5.35;1.70;;;8.50;99.90;;;;;;5085583;27;20109;-82
2024/01/02 08:35:26;;;;;;;6.05;1.80;;;8.50;99.90;;;;;;5095924;27;20046;-82
2024/01/02 08:37:51;;;;;;;3.28;1.45;;;8.60;99.90;;;;;;5113603;27;20036;-82
2024/01/02 08:40:17;;;;;;;4.70;2.00;;;8.70;99.90;;;;;;5100734;27;20419;-83
2024/01/02 08:42:43;;;;;;;4.95;1.95;;;8.80;99.90;;;;;;5108885;27;20062;-82
2024/01/02 08:45:11;;;;;;;6.40;1.83;;;8.90;99.90;;;;;;5083296;27;20044;-82
2024/01/02 08:47:38;;;;;;;9.23;2.75;;;9.10;99.90;;;;;;5103432;27;20542;-83
2024/01/02 08:50:06;;;;;;;7.63;2.70;;;9.20;99.90;;;;;;5115103;27;20046;-82
2024/01/02 08:52:32;;;;;;;12.02;3.10;;;9.20;99.90;;;;;;5111376;28;20109;-83
2024/01/02 08:54:58;;;;;;;13.32;2.85;;;9.20;99.90;;;;;;5108129;28;20488;-78
2024/01/02 08:57:24;;;;;;;12.68;3.17;;;9.10;99.90;;;;;;5129699;27;20402;-82
2024/01/02 08:59:50;;;;;;;11.27;2.83;;;9.10;99.90;;;;;;5112702;28;20471;-82
2024/01/02 09:02:15;;;;;;;13.10;3.25;;;9.10;99.90;;;;;;5111711;27;20027;-82
2024/01/02 09:04:43;;;;;;;14.93;3.45;;;9.20;99.90;;;;;;5110828;28;20122;-82
2024/01/02 09:07:09;;;;;;;15.70;3.90;;;9.30;99.90;;;;;;5140759;27;20040;-82
2024/01/02 09:09:34;;;;;;;13.20;3.55;;;9.30;99.90;;;;;;5093328;28;20551;-81
2024/01/02 09:12:01;;;;;;;16.15;4.95;;;9.40;99.90;;;;;;5128991;27;20035;-82
2024/01/02 09:14:27;;;;;;;18.42;4.25;;;9.40;99.90;;;;;;5128354;27;20050;-82
2024/01/02 09:16:52;;;;;;;19.77;4.40;;;9.40;99.90;;;;;;5127863;27;20031;-82
2024/01/02 09:19:18;;;;;;;20.98;4.55;;;9.40;99.90;;;;;;5094706;28;20036;-82
2024/01/02 09:21:44;;;;;;;18.75;4.75;;;9.50;99.90;;;;;;5145511;27;20036;-81
2024/01/02 09:24:10;;;;;;;19.15;5.28;;;9.50;99.90;;;;;;5142127;27;20560;-81
2024/01/02 09:26:39;;;;;;;8.38;3.15;;;9.60;99.90;;;;;;5107943;28;20042;-81
2024/01/02 09:29:05;;;;;;;17.83;4.13;;;9.60;99.90;;;;;;5111593;27;20119;-82
2024/01/02 09:31:30;;;;;;;13.52;3.53;;;9.70;99.90;;;;;;5146270;27;20177;-81
2024/01/02 09:33:56;;;;;;;10.85;2.85;;;9.80;99.90;;;;;;5126582;27;20031;-81
2024/01/02 09:36:22;;;;;;;12.55;2.70;;;9.90;99.90;;;;;;5107998;28;20096;-81
2024/01/02 09:38:47;;;;;;;12.65;2.65;;;9.90;99.90;;;;;;5094445;28;20031;-81
2024/01/02 09:42:04;;;;;;;13.10;2.30;;;9.80;99.90;;;;;;5108516;28;20592;-81
2024/01/02 09:44:48;;;;;;;13.55;2.47;;;10.00;99.90;;;;;;5036118;28;20051;-81
2024/01/02 09:47:46;;;;;;;13.73;1.80;;;10.10;99.90;;;;;;5088108;28;20419;-81
2024/01/02 09:50:20;;;;;;;8.88;1.65;;;10.10;99.90;;;;;;5047845;28;20463;-81
2024/01/02 09:53:07;;;;;;;10.50;2.00;;;10.30;99.90;;;;;;5111377;28;20050;-81
2024/01/02 09:55:52;;;;;;;13.70;1.90;;;10.30;99.90;;;;;;5091756;28;20385;-81
2024/01/02 09:58:35;;;;;;;10.88;2.75;;;10.30;99.90;;;;;;5086301;28;20044;-81
2024/01/02 10:01:05;;;;;;;18.42;3.38;;;10.20;99.90;;;;;;5122178;27;20040;-82
2024/01/02 10:03:52;;;;;;;6.90;1.63;;;10.30;99.90;;;;;;5144534;27;20036;-82
2024/01/02 10:06:29;;;;;;;12.32;2.10;;;10.30;99.90;;;;;;5122651;27;20498;-82
2024/01/02 10:09:15;;;;;;;12.48;2.20;;;10.40;99.90;;;;;;5144159;27;20044;-81
2024/01/02 10:12:06;;;;;;;14.77;2.80;;;10.40;99.90;;;;;;5125918;27;20040;-82
2024/01/02 10:14:58;;;;;;;11.57;1.90;;;10.40;99.90;;;;;;5128745;27;20040;-81
2024/01/02 10:17:38;;;;;;;19.37;3.13;;;10.50;99.90;;;;;;5088808;28;20040;-81
2024/01/02 10:20:04;;;;;;;14.93;2.42;;;10.50;99.90;;;;;;5102811;28;20112;-82
2024/01/02 10:22:47;;;;;;;7.95;1.70;;;10.60;99.90;;;;;;5142947;27;20480;-81
2024/01/02 10:25:16;;;;;;;12.68;1.98;;;10.60;99.90;;;;;;5100207;28;20510;-82
2024/01/02 10:28:20;;;;;;;16.88;2.50;;;10.60;99.90;;;;;;5111774;28;20043;-82
2024/01/02 10:30:53;;;;;;;17.35;2.80;;;10.60;99.90;;;;;;5075498;28;20044;-82
2024/01/02 10:33:41;;;;;;;;;;;10.60;99.90;;;;;;5122493;27;20433;-81
2024/01/02 10:36:12;;;;;;;13.93;2.10;;;10.60;99.90;;;;;;5101986;27;19973;-81
2024/01/02 10:38:52;;;;;;;12.80;2.47;;;10.50;99.90;;;;;;5113333;28;20112;-81
2024/01/02 10:41:59;;;;;;;14.93;2.15;;;10.50;99.90;;;;;;5108496;28;20373;-82
2024/01/02 10:44:40;;;;;;;14.48;2.28;;;10.60;99.90;;;;;;5090581;28;20062;-82
2024/01/02 10:47:17;;;;;;;9.32;1.95;;;10.60;99.90;;;;;;5149910;27;20122;-81
2024/01/02 10:49:48;;;;;;;11.60;1.77;;;10.70;99.90;;;;;;5130118;27;20039;-82
2024/01/02 10:52:25;;;;;;;9.23;2.10;;;10.70;99.90;;;;;;5114516;28;20403;-82
2024/01/02 10:55:12;;;;;;;8.98;1.50;;;10.70;99.90;;;;;;5095927;28;20040;-82
2024/01/02 10:58:02;;;;;;;13.45;2.05;;;10.90;99.90;;;;;;5097212;28;20118;-81
2024/01/02 11:00:32;;;;;;;9.30;1.77;;;10.90;99.90;;;;;;5124793;27;20039;-82
2024/01/02 11:03:10;;;;;;;13.27;1.90;;;10.80;99.90;;;;;;5114876;28;20400;-82
2024/01/02 11:05:44;;;;;;;10.90;2.15;;;10.90;99.90;;;;;;5145605;27;20040;-82
2024/01/02 11:08:27;;;;;;;13.48;1.90;;;10.90;99.90;;;;;;5109565;27;20052;-82
2024/01/02 11:11:01;;;;;;;16.80;2.08;;;10.90;99.90;;;;;;5116500;27;20047;-82
2024/01/02 11:13:28;;;;;;;15.07;2.30;;;11.00;99.90;;;;;;5113198;27;20047;-82
2024/01/02 11:16:02;;;;;;;13.05;1.73;;;11.00;99.90;;;;;;5096837;28;20031;-82
2024/01/02 11:18:31;;;;;;;16.13;3.08;;;11.00;99.90;;;;;;5095855;28;20031;-81
2024/01/02 11:21:15;;;;;;;12.70;2.95;;;10.90;99.90;;;;;;5100209;28;20036;-82
2024/01/02 11:23:44;;;;;;;12.70;2.45;;;11.00;99.90;;;;;;5108722;27;20031;-82
2024/01/02 11:26:29;;;;;;;15.95;2.60;;;10.90;99.90;;;;;;5131051;27;20043;-82
2024/01/02 11:29:00;;;;;;;14.23;1.90;;;10.90;99.90;;;;;;5096611;28;20048;-82
2024/01/02 11:31:27;;;;;;;12.85;1.98;;;11.00;99.90;;;;;;5111258;28;20046;-82
2024/01/02 11:33:59;;;;;;;13.55;2.15;;;11.00;99.90;;;;;;5096919;28;20070;-82
2024/01/02 11:36:31;;;;;;;14.48;2.22;;;11.10;99.90;;;;;;5114596;28;20067;-82
2024/01/02 11:39:15;;;;;;;15.05;2.58;;;11.10;99.90;;;;;;5095003;28;20035;-82
2024/01/02 11:42:00;;;;;;;12.75;3.10;;;11.10;99.90;;;;;;5106999;27;20059;-82
2024/01/02 11:45:00;;;;;;;13.95;2.30;;;11.10;99.90;;;;;;5126703;27;20062;-82
2024/01/02 11:47:45;;;;;;;11.82;2.22;;;11.10;99.90;;;;;;5098548;28;20036;-82
2024/01/02 11:50:12;;;;;;;14.82;2.20;;;11.10;99.90;;;;;;5148889;27;20036;-82
2024/01/02 11:53:02;;;;;;;15.50;2.50;;;11.20;99.90;;;;;;5095566;28;20065;-82
2024/01/02 11:55:34;;;;;;;18.40;2.60;;;11.20;99.90;;;;;;5141867;27;20552;-82
2024/01/02 11:58:11;;;;;;;14.38;2.72;;;11.10;99.90;;;;;;5093603;28;20093;-82
2024/01/02 12:00:59;;;;;;;10.90;1.98;;;11.10;99.90;;;;;;5094234;28;20040;-82
2024/01/02 12:03:49;;;;;;;15.10;2.17;;;11.10;99.90;;;;;;5128591;27;20035;-82
2024/01/02 12:06:46;;;;;;;15.57;2.38;;;11.10;99.90;;;;;;5092452;28;20115;-82
2024/01/02 12:09:17;;;;;;;13.75;2.25;;;11.10;99.90;;;;;;5106557;28;20071;-82
2024/01/02 12:12:08;;;;;;;13.02;1.88;;;11.10;99.90;;;;;;5129477;27;20039;-83
2024/01/02 12:15:05;;;;;;;14.32;2.28;;;11.10;99.90;;;;;;5106566;27;20492;-82
2024/01/02 12:17:38;;;;;;;17.65;2.80;;;11.10;99.90;;;;;;5127198;27;20053;-82
2024/01/02 12:20:05;;;;;;;14.10;2.40;;;11.10;99.90;;;;;;5148014;27;20044;-82
2024/01/02 12:22:33;;;;;;;12.65;2.35;;;11.10;99.90;;;;;;5094340;28;20396;-82
2024/01/02 12:25:00;;;;;;;15.23;3.72;;;11.00;99.90;;;;;;5112228;28;20053;-82
2024/01/02 12:27:30;;;;;;;17.60;3.00;;;10.90;99.90;;;;;;5095271;28;20054;-81
2024/01/02 12:30:04;;;;;;;18.98;3.15;;;10.90;99.90;;;;;;5120535;27;20050;-81
2024/01/02 12:32:29;;;;;;;14.73;3.20;;;10.90;99.90;;;;;;5141292;27;20059;-81
2024/01/02 12:35:28;;;;;;;18.75;3.55;;;10.90;99.90;;;;;;5096670;28;20044;-82
2024/01/02 12:38:15;;;;;;;14.13;2.72;;;10.90;99.90;;;;;;5102861;27;20050;-82
2024/01/02 12:40:47;;;;;;;19.10;4.47;;;11.00;99.90;;;;;;5128314;27;20047;-82
2024/01/02 12:43:19;;;;;;;16.08;3.17;;;11.00;99.90;;;;;;5129579;27;20036;-82
2024/01/02 12:45:50;;;;;;;16.67;3.40;;;10.90;99.90;;;;;;5093157;28;20075;-81
2024/01/02 12:48:24;;;;;;;18.13;3.78;;;10.80;99.90;;;;;;5075697;28;20047;-82
2024/01/02 12:50:53;;;;;;;17.80;3.40;;;10.80;99.90;;;;;;5111939;27;20057;-82
2024/01/02 12:53:20;;;;;;;22.17;3.95;;;10.80;99.90;;;;;;5103843;27;20540;-82
2024/01/02 12:56:00;;;;;;;20.58;4.53;;;10.70;99.90;;;;;;5111384;28;20585;-81
2024/01/02 12:58:31;;;;;;;17.02;3.22;;;10.70;99.90;;;;;;5095181;28;20044;-81
2024/01/02 13:00:58;;;;;;;18.90;3.38;;;10.70;99.90;;;;;;5146520;27;20066;-81